This is the latest recevied weather packets stored in our database for station/object N0SWP-3. If no packets are shown the sender has not sent any weather packets the latest 10 day(s).
| Time | Temp. | Humidity | Pressure | Rain* | Wind** | Luminosity | Snow |
|---|---|---|---|---|---|---|---|
| 1777948517 | 22.78° C | 68% | 1003.7 hPa | 0 mm | - | - | - |
| 1777946944 | 23.33° C | 66% | 1003.2 hPa | 0 mm | - | - | - |
| 1777945143 | 23.89° C | 64% | 1002.8 hPa | 0 mm | - | - | - |
| 1777944918 | 24.44° C | 63% | 1002.6 hPa | 0 mm | - | - | - |
| 1777943883 | 24.44° C | 60% | 1002.3 hPa | 0 mm | - | - | - |
| 1777942983 | 25° C | 58% | 1002.2 hPa | 0 mm | - | - | - |
| 1777942083 | 25.56° C | 56% | 1002 hPa | 0 mm | - | - | - |
| 1777941723 | 25.56° C | 55% | 1001.8 hPa | 0 mm | - | - | - |
| 1777941003 | 26.11° C | 54% | 1001.9 hPa | 0 mm | - | - | - |
| 1777939743 | 27.22° C | 51% | 1002 hPa | 0 mm | - | - | - |
| 1777939563 | 27.22° C | 51% | 1001.8 hPa | 0 mm | - | - | - |
| 1777937403 | 28.33° C | 46% | 1002 hPa | 0 mm | - | - | - |
| 1777936684 | 28.89° C | 46% | 1002.1 hPa | 0 mm | - | - | - |
| 1777935063 | 29.44° C | 45% | 1002.1 hPa | 0 mm | - | - | - |
| 1777934344 | 29.44° C | 44% | 1002 hPa | 0 mm | - | - | - |
| 1777933623 | 29.44° C | 43% | 1002 hPa | 0 mm | - | - | - |
| 1777932903 | 29.44° C | 44% | 1002 hPa | 0 mm | - | - | - |
| 1777930744 | 29.44° C | 43% | 1002.2 hPa | 0 mm | - | - | - |
| 1777929663 | 28.89° C | 44% | 1002.3 hPa | 0 mm | - | - | - |
| 1777928943 | 29.44° C | 44% | 1002.3 hPa | 0 mm | - | - | - |
| 1777927503 | 29.44° C | 43% | 1002.5 hPa | 0 mm | - | - | - |
| 1777927143 | 29.44° C | 42% | 1002.6 hPa | 0 mm | - | - | - |
| 1777926423 | 29.44° C | 42% | 1002.8 hPa | 0 mm | - | - | - |
| 1777926063 | 28.89° C | 42% | 1002.8 hPa | 0 mm | - | - | - |
| 1777925523 | 29.44° C | 40% | 1002.9 hPa | 0 mm | - | - | - |
* Rain latest hour (hover to see other rain measurements)
** Current wind speed in m/s (hover to see current wind gust speed)